Hals, Denmark
Current Conditions -  °F | °C
As of 5:20 AM on Thursday 23 Oct 2014 (Local Time) from EKYT Reporting Station
Haze Haze  
Wind Chill: 52°   Ceiling: 600
Heat Index: 52°   Visibility: 3mi
Dew Point: 52°   Wind: 10mph
Humidity: 100%   Direction: 170°S
Pressure: 30"   Gusts: NA
Location:  57°N, 10.31°E
Report Text: EKYT 230320Z 17009KT 5000 BR FEW003 BKN006 11/11 Q1016
Loading
Personal Weather Stations






























Interactive Weather Map
Tropical Storm Tracking
New forecast layout! Learn more

10-Day Weather Forecast

Advertisements
Track Severe Weather on mobile